| time (UTC) | temp F | wind direction | speed MPH | gust MPH | rain 1hr in | rain 24hr in | rain mn in | humidity % | barometer mb |
| 20260906234627 | 79 | 114 | 4.0 | 6.0 | 0.00 | 0.00 | 0.00 | 41 | 1011.6 |
| 20260906233618 | 83 | 164 | 2.0 | 13.0 | 0.00 | 0.00 | 0.00 | 35 | 1011.8 |
| 20260906232629 | 83 | 198 | 9.0 | 14.0 | 0.00 | 0.00 | 0.00 | 24 | 1011.8 |
| 20260906231621 | 83 | 195 | 8.0 | 14.0 | 0.00 | 0.00 | 0.00 | 24 | 1011.7 |
| 20260906230616 | 83 | 199 | 8.0 | 18.0 | 0.00 | 0.00 | 0.00 | 24 | 1012.0 |
| 20260906225640 | 83 | 200 | 10.0 | 14.0 | 0.00 | 0.00 | 0.00 | 22 | 1012.2 |
| 20260906224631 | 83 | 219 | 11.0 | 18.0 | 0.00 | 0.00 | 0.00 | 22 | 1012.2 |
| 20260906223622 | 83 | 192 | 8.0 | 13.0 | 0.00 | 0.00 | 0.00 | 24 | 1012.3 |
| 20260906222637 | 83 | 189 | 11.0 | 18.0 | 0.00 | 0.00 | 0.00 | 22 | 1012.3 |
| 20260906221628 | 83 | 189 | 14.0 | 21.0 | 0.00 | 0.00 | 0.00 | 21 | 1012.4 |
| 20260906220619 | 84 | 217 | 10.0 | 17.0 | 0.00 | 0.00 | 0.00 | 23 | 1012.4 |
| 20260906215622 | 85 | 182 | 10.0 | 18.0 | 0.00 | 0.00 | 0.00 | 24 | 1012.7 |
| 20260906214617 | 84 | 186 | 6.0 | 18.0 | 0.00 | 0.00 | 0.00 | 24 | 1012.7 |
| 20260906213629 | 84 | 193 | 16.0 | 25.0 | 0.00 | 0.00 | 0.00 | 22 | 1012.7 |
| 20260906212620 | 85 | 215 | 13.0 | 21.0 | 0.00 | 0.00 | 0.00 | 22 | 1012.7 |
| 20260906211636 | 84 | 201 | 11.0 | 19.0 | 0.00 | 0.00 | 0.00 | 23 | 1012.7 |
| 20260906210645 | 84 | 220 | 11.0 | 15.0 | 0.00 | 0.00 | 0.00 | 24 | 1012.9 |
| 20260906205628 | 83 | 182 | 8.0 | 15.0 | 0.00 | 0.00 | 0.00 | 27 | 1012.9 |
| 20260906204619 | 83 | 150 | 11.0 | 19.0 | 0.00 | 0.00 | 0.00 | 27 | 1013.1 |
| 20260906203614 | 82 | 168 | 11.0 | 19.0 | 0.00 | 0.00 | 0.00 | 29 | 1013.2 |
| 20260906202625 | 83 | 157 | 10.0 | 16.0 | 0.00 | 0.00 | 0.00 | 26 | 1013.4 |
| 20260906201617 | 83 | 188 | 10.0 | 16.0 | 0.00 | 0.00 | 0.00 | 25 | 1013.5 |
| 20260906200628 | 83 | 177 | 14.0 | 20.0 | 0.00 | 0.00 | 0.00 | 24 | 1013.5 |
| 20260906195615 | 83 | 158 | 11.0 | 19.0 | 0.00 | 0.00 | 0.00 | 21 | 1013.7 |
| 20260906194627 | 84 | 195 | 13.0 | 22.0 | 0.00 | 0.00 | 0.00 | 20 | 1013.8 |
| 20260906193617 | 84 | 175 | 13.0 | 20.0 | 0.00 | 0.00 | 0.00 | 21 | 1014.2 |
| 20260906192628 | 84 | 161 | 14.0 | 24.0 | 0.00 | 0.00 | 0.00 | 22 | 1014.0 |
| 20260906191623 | 84 | 139 | 13.0 | 25.0 | 0.00 | 0.00 | 0.00 | 20 | 1014.1 |
| 20260906190614 | 84 | 181 | 14.0 | 25.0 | 0.00 | 0.00 | 0.00 | 19 | 1014.2 |
| 20260906185617 | 84 | 190 | 12.0 | 20.0 | 0.00 | 0.00 | 0.00 | 19 | 1014.4 |
| 20260906184628 | 83 | 162 | 14.0 | 21.0 | 0.00 | 0.00 | 0.00 | 20 | 1014.5 |
| 20260906183623 | 83 | 191 | 14.0 | 22.0 | 0.00 | 0.00 | 0.00 | 20 | 1014.5 |
| 20260906182635 | 83 | 169 | 15.0 | 24.0 | 0.00 | 0.00 | 0.00 | 21 | 1014.6 |
| 20260906181624 | 83 | 163 | 13.0 | 19.0 | 0.00 | 0.00 | 0.00 | 21 | 1014.8 |
| 20260906180619 | 82 | 182 | 11.0 | 17.0 | 0.00 | 0.00 | 0.00 | 21 | 1014.9 |
| 20260906175627 | 82 | 177 | 11.0 | 17.0 | 0.00 | 0.00 | 0.00 | 23 | 1015.1 |
| 20260906174617 | 81 | 139 | 12.0 | 18.0 | 0.00 | 0.00 | 0.00 | 28 | 1015.4 |
| 20260906173628 | 80 | 162 | 12.0 | 19.0 | 0.00 | 0.00 | 0.00 | 30 | 1015.5 |
| 20260906172620 | 80 | 170 | 11.0 | 20.0 | 0.00 | 0.00 | 0.00 | 30 | 1015.8 |
| 20260906171614 | 80 | 180 | 10.0 | 12.0 | 0.00 | 0.00 | 0.00 | 29 | 1015.9 |
| 20260906170645 | 79 | 180 | 9.0 | 14.0 | 0.00 | 0.00 | 0.00 | 28 | 1016.0 |
| 20260906165626 | 79 | 168 | 10.0 | 16.0 | 0.00 | 0.00 | 0.00 | 30 | 1015.9 |
| 20260906164617 | 78 | 199 | 8.0 | 16.0 | 0.00 | 0.00 | 0.00 | 30 | 1015.8 |
| 20260906163612 | 78 | 194 | 8.0 | 14.0 | 0.00 | 0.00 | 0.00 | 32 | 1016.1 |
| 20260906162623 | 76 | 171 | 9.0 | 16.0 | 0.00 | 0.00 | 0.00 | 32 | 1016.0 |
| 20260906161614 | 76 | 180 | 7.0 | 11.0 | 0.00 | 0.00 | 0.00 | 34 | 1016.2 |
| 20260906160623 | 76 | 159 | 8.0 | 12.0 | 0.00 | 0.00 | 0.00 | 33 | 1016.2 |
| 20260906155628 | 75 | 153 | 7.0 | 10.0 | 0.00 | 0.00 | 0.00 | 33 | 1016.2 |
| 20260906154618 | 74 | 176 | 8.0 | 10.0 | 0.00 | 0.00 | 0.00 | 34 | 1016.2 |
| 20260906153628 | 73 | 182 | 8.0 | 11.0 | 0.00 | 0.00 | 0.00 | 34 | 1016.2 |
| 20260906152621 | 72 | 195 | 8.0 | 13.0 | 0.00 | 0.00 | 0.00 | 35 | 1016.2 |
| 20260906151627 | 70 | 117 | 4.0 | 8.0 | 0.00 | 0.00 | 0.00 | 47 | 1016.4 |
| 20260906150619 | 68 | 130 | 5.0 | 9.0 | 0.00 | 0.00 | 0.00 | 46 | 1016.3 |
| 20260906145623 | 68 | 97 | 5.0 | 7.0 | 0.00 | 0.00 | 0.00 | 48 | 1016.3 |
| 20260906144618 | 66 | 218 | 5.0 | 7.0 | 0.00 | 0.00 | 0.00 | 44 | 1016.1 |
| 20260906143629 | 66 | 78 | 2.0 | 3.0 | 0.00 | 0.00 | 0.00 | 50 | 1016.3 |
| 20260906142620 | 65 | 78 | 2.0 | 3.0 | 0.00 | 0.00 | 0.00 | 52 | 1016.0 |
| 20260906141631 | 62 | 78 | 1.0 | 1.0 | 0.00 | 0.00 | 0.00 | 51 | 1016.2 |
| 20260906140627 | 60 | 78 | 1.0 | 3.0 | 0.00 | 0.00 | 0.00 | 49 | 1016.2 |
| 20260906135629 | 61 | 81 | 3.0 | 5.0 | 0.00 | 0.00 | 0.00 | 54 | 1016.0 |
| 20260906134640 | 60 | 342 | 2.0 | 3.0 | 0.00 | 0.00 | 0.00 | 48 | 1016.0 |
| 20260906133652 | 59 | 342 | 1.0 | 4.0 | 0.00 | 0.00 | 0.00 | 50 | 1015.9 |
| 20260906132626 | 58 | 341 | 3.0 | 6.0 | 0.00 | 0.00 | 0.00 | 49 | 1015.7 |
| 20260906131638 | 57 | 319 | 3.0 | 4.0 | 0.00 | 0.00 | 0.00 | 49 | 1015.6 |
| 20260906130629 | 57 | 318 | 4.0 | 5.0 | 0.00 | 0.00 | 0.00 | 50 | 1015.6 |
| 20260906125652 | 58 | 194 | 2.0 | 4.0 | 0.00 | 0.00 | 0.00 | 50 | 1015.4 |
| 20260906124626 | 60 | 194 | 2.0 | 5.0 | 0.00 | 0.00 | 0.00 | 45 | 1015.4 |
| 20260906123617 | 61 | 194 | 3.0 | 4.0 | 0.00 | 0.00 | 0.00 | 45 | 1015.4 |
| 20260906122650 | 61 | 175 | 2.0 | 3.0 | 0.00 | 0.00 | 0.00 | 44 | 1015.4 |
| 20260906121620 | 61 | 175 | 2.0 | 3.0 | 0.00 | 0.00 | 0.00 | 43 | 1015.3 |
| 20260906120616 | 62 | 174 | 1.0 | 2.0 | 0.00 | 0.00 | 0.00 | 43 | 1015.4 |
| 20260906115619 | 61 | 174 | 1.0 | 4.0 | 0.00 | 0.00 | 0.00 | 44 | 1015.5 |
| 20260906114630 | 61 | 159 | 2.0 | 3.0 | 0.00 | 0.00 | 0.00 | 44 | 1015.4 |
| 20260906113620 | 61 | 159 | 0.0 | 3.0 | 0.00 | 0.00 | 0.00 | 44 | 1015.4 |
| 20260906112615 | 61 | 159 | 2.0 | 2.0 | 0.00 | 0.00 | 0.00 | 44 | 1015.3 |
| 20260906111626 | 61 | 159 | 1.0 | 2.0 | 0.00 | 0.00 | 0.00 | 44 | 1015.3 |
| 20260906110617 | 62 | 159 | 2.0 | 3.0 | 0.00 | 0.00 | 0.00 | 43 | 1015.3 |
| 20260906105621 | 61 | 159 | 1.0 | 2.0 | 0.00 | 0.00 | 0.00 | 43 | 1015.2 |
| 20260906104616 | 61 | 159 | 2.0 | 5.0 | 0.00 | 0.00 | 0.00 | 43 | 1015.1 |
| 20260906102621 | 62 | 146 | 4.0 | 7.0 | 0.00 | 0.00 | 0.00 | 44 | 1014.9 |
| 20260906101612 | 62 | 180 | 2.0 | 4.0 | 0.00 | 0.00 | 0.00 | 40 | 1014.8 |
| 20260906100627 | 62 | 194 | 3.0 | 5.0 | 0.00 | 0.00 | 0.00 | 41 | 1014.8 |
| 20260906095628 | 60 | 190 | 3.0 | 5.0 | 0.00 | 0.00 | 0.00 | 45 | 1014.9 |
| 20260906094617 | 63 | 150 | 3.0 | 6.0 | 0.00 | 0.00 | 0.00 | 42 | 1014.8 |
| 20260906093626 | 65 | 175 | 4.0 | 9.0 | 0.00 | 0.00 | 0.00 | 36 | 1014.5 |
| 20260906092621 | 66 | 187 | 6.0 | 8.0 | 0.00 | 0.00 | 0.00 | 34 | 1014.5 |
| 20260906091630 | 67 | 192 | 5.0 | 7.0 | 0.00 | 0.00 | 0.00 | 33 | 1014.6 |
| 20260906090619 | 74 | 153 | 8.0 | 17.0 | 0.00 | 0.00 | 0.00 | 25 | 1014.5 |
| 20260906085621 | 74 | 211 | 11.0 | 20.0 | 0.00 | 0.00 | 0.00 | 24 | 1014.3 |
| 20260906084615 | 70 | 219 | 10.0 | 16.0 | 0.00 | 0.00 | 0.00 | 27 | 1014.2 |
| 20260906083625 | 67 | 182 | 6.0 | 8.0 | 0.00 | 0.00 | 0.00 | 33 | 1014.4 |
| 20260906082615 | 66 | 182 | 3.0 | 5.0 | 0.00 | 0.00 | 0.00 | 33 | 1014.5 |
| 20260906081643 | 65 | 203 | 2.0 | 4.0 | 0.00 | 0.00 | 0.00 | 35 | 1014.5 |
| 20260906080616 | 63 | 169 | 2.0 | 4.0 | 0.00 | 0.00 | 0.00 | 39 | 1014.6 |
| 20260906075621 | 63 | 121 | 4.0 | 7.0 | 0.00 | 0.00 | 0.00 | 40 | 1014.5 |
| 20260906074613 | 63 | 115 | 3.0 | 4.0 | 0.00 | 0.00 | 0.00 | 39 | 1014.5 |
| 20260906073645 | 62 | 111 | 1.0 | 6.0 | 0.00 | 0.00 | 0.00 | 42 | 1014.5 |
| 20260906072619 | 64 | 140 | 1.0 | 3.0 | 0.00 | 0.00 | 0.00 | 39 | 1014.4 |
| 20260906071631 | 67 | 140 | 1.0 | 13.0 | 0.00 | 0.00 | 0.00 | 38 | 1014.3 |
| 20260906070622 | 64 | 144 | 3.0 | 4.0 | 0.00 | 0.00 | 0.00 | 39 | 1014.3 |
| 20260906065624 | 69 | 49 | 3.0 | 6.0 | 0.00 | 0.00 | 0.00 | 34 | 1014.2 |
| 20260906064618 | 75 | 229 | 2.0 | 15.0 | 0.00 | 0.00 | 0.00 | 29 | 1014.1 |
| 20260906063650 | 76 | 224 | 8.0 | 14.0 | 0.00 | 0.00 | 0.00 | 23 | 1014.0 |
| 20260906062621 | 75 | 207 | 10.0 | 16.0 | 0.00 | 0.00 | 0.00 | 23 | 1014.0 |
| 20260906061652 | 75 | 222 | 9.0 | 14.0 | 0.00 | 0.00 | 0.00 | 25 | 1014.0 |
| 20260906060623 | 74 | 217 | 9.0 | 11.0 | 0.00 | 0.00 | 0.00 | 26 | 1014.1 |
| 20260906055622 | 71 | 217 | 5.0 | 7.0 | 0.00 | 0.00 | 0.00 | 28 | 1014.1 |
| 20260906054612 | 69 | 253 | 2.0 | 3.0 | 0.00 | 0.00 | 0.00 | 27 | 1014.1 |
| 20260906053623 | 68 | 253 | 1.0 | 3.0 | 0.00 | 0.00 | 0.00 | 28 | 1014.1 |
| 20260906052613 | 67 | 252 | 2.0 | 5.0 | 0.00 | 0.00 | 0.00 | 30 | 1014.1 |
| 20260906051649 | 68 | 63 | 3.0 | 6.0 | 0.00 | 0.00 | 0.00 | 32 | 1014.1 |
| 20260906050617 | 73 | 236 | 4.0 | 7.0 | 0.00 | 0.00 | 0.00 | 23 | 1013.9 |
| 20260906045638 | 71 | 276 | 4.0 | 7.0 | 0.00 | 0.00 | 0.00 | 24 | 1014.0 |
| 20260906044628 | 72 | 286 | 3.0 | 8.0 | 0.00 | 0.00 | 0.00 | 23 | 1014.0 |
| 20260906043640 | 72 | 273 | 4.0 | 8.0 | 0.00 | 0.00 | 0.00 | 23 | 1014.0 |
| 20260906042614 | 73 | 277 | 5.0 | 8.0 | 0.00 | 0.00 | 0.00 | 23 | 1013.9 |
| 20260906041624 | 73 | 290 | 4.0 | 7.0 | 0.00 | 0.00 | 0.00 | 22 | 1013.9 |
| 20260906040634 | 74 | 297 | 3.0 | 8.0 | 0.00 | 0.00 | 0.00 | 22 | 1013.9 |
| 20260906035614 | 74 | 298 | 4.0 | 7.0 | 0.00 | 0.00 | 0.00 | 22 | 1013.9 |
| 20260906034629 | 74 | 317 | 4.0 | 8.0 | 0.00 | 0.00 | 0.00 | 22 | 1013.9 |
| 20260906033618 | 73 | 305 | 6.0 | 9.0 | 0.00 | 0.00 | 0.00 | 23 | 1013.7 |
| 20260906032649 | 70 | 281 | 4.0 | 5.0 | 0.00 | 0.00 | 0.00 | 25 | 1013.8 |
| 20260906031619 | 69 | 295 | 5.0 | 6.0 | 0.00 | 0.00 | 0.00 | 25 | 1013.6 |
| 20260906030613 | 71 | 36 | 4.0 | 6.0 | 0.00 | 0.00 | 0.00 | 23 | 1013.6 |
| 20260906025614 | 72 | 284 | 4.0 | 7.0 | 0.00 | 0.00 | 0.00 | 23 | 1013.4 |
| 20260906024645 | 71 | 287 | 4.0 | 5.0 | 0.00 | 0.00 | 0.00 | 23 | 1013.4 |
| 20260906023613 | 71 | 287 | 4.0 | 7.0 | 0.00 | 0.00 | 0.00 | 24 | 1013.2 |
| 20260906022649 | 72 | 236 | 3.0 | 4.0 | 0.00 | 0.00 | 0.00 | 23 | 1013.1 |
| 20260906021619 | 73 | 236 | 3.0 | 4.0 | 0.00 | 0.00 | 0.00 | 23 | 1013.2 |
| 20260906020630 | 75 | 236 | 3.0 | 3.0 | 0.00 | 0.00 | 0.00 | 23 | 1013.2 |
| 20260906015613 | 78 | 236 | 3.0 | 4.0 | 0.00 | 0.00 | 0.00 | 21 | 1013.3 |
| 20260906014628 | 78 | 236 | 2.0 | 4.0 | 0.00 | 0.00 | 0.00 | 23 | 1013.4 |
| 20260906013619 | 79 | 236 | 3.0 | 4.0 | 0.00 | 0.00 | 0.00 | 22 | 1013.5 |
| 20260906012630 | 80 | 161 | 2.0 | 3.0 | 0.00 | 0.00 | 0.00 | 23 | 1013.7 |
| 20260906011622 | 80 | 161 | 1.0 | 2.0 | 0.00 | 0.00 | 0.00 | 25 | 1013.7 |
| 20260906010637 | 80 | 161 | 3.0 | 4.0 | 0.00 | 0.00 | 0.00 | 26 | 1013.8 |
| 20260906005639 | 81 | 161 | 2.0 | 3.0 | 0.00 | 0.00 | 0.00 | 27 | 1013.8 |
| 20260906004629 | 82 | 161 | 4.0 | 7.0 | 0.00 | 0.00 | 0.00 | 22 | 1013.7 |
| 20260906003620 | 83 | 163 | 5.0 | 10.0 | 0.00 | 0.00 | 0.00 | 21 | 1013.8 |
| 20260906002637 | 83 | 144 | 5.0 | 11.0 | 0.00 | 0.00 | 0.00 | 21 | 1013.5 |
| 20260906001627 | 83 | 173 | 6.0 | 10.0 | 0.00 | 0.00 | 0.00 | 21 | 1013.8 |
| 20260906000620 | 83 | 138 | 6.0 | 11.0 | 0.00 | 0.00 | 0.00 | 20 | 1013.7 |
| 20260905235623 | 83 | 169 | 8.0 | 14.0 | 0.00 | 0.00 | 0.00 | 21 | 1013.8 |